Time;durP1;ratioP1;P1;durP2;ratioP2;P2;SDS_P1;SDS_P2;PMS_P1;PMS_P2;Temp;Humidity;BMP_temperature;BMP_pressure;BME280_temperature;BME280_humidity;BME280_pressure;Samples;Min_cycle;Max_cycle;Signal;HPM_P1;HPM_P2
2022/08/23 00:00:45;;;;;;;3.50;2.33;;;;;;;21.08;42.79;97020.88;5008691;28;20632;-75
2022/08/23 00:03:11;;;;;;;3.80;2.30;;;;;;;21.06;42.52;97015.91;5027191;27;20192;-75
2022/08/23 00:05:37;;;;;;;6.88;2.80;;;;;;;21.05;42.86;97018.84;4991284;27;20469;-75
2022/08/23 00:08:02;;;;;;;2.83;2.10;;;;;;;21.01;43.75;97018.72;5021415;28;20073;-75
2022/08/23 00:10:28;;;;;;;2.40;2.20;;;;;;;20.97;43.64;97017.00;4994069;28;20101;-74
2022/08/23 00:12:53;;;;;;;2.67;2.30;;;;;;;20.97;43.16;97009.84;5012672;28;20762;-75
2022/08/23 00:15:19;;;;;;;3.22;2.17;;;;;;;21.05;42.56;97010.91;5029656;27;20288;-75
2022/08/23 00:17:45;;;;;;;3.15;2.10;;;;;;;21.13;41.44;97008.25;5000542;28;20176;-75
2022/08/23 00:20:13;;;;;;;2.33;2.00;;;;;;;21.19;41.45;97003.53;5008521;28;20181;-75
2022/08/23 00:22:39;;;;;;;1.98;1.75;;;;;;;21.26;41.30;97011.00;4975445;28;20276;-75
2022/08/23 00:25:08;;;;;;;3.00;1.92;;;;;;;21.20;42.07;97014.91;5001870;27;20794;-75
2022/08/23 00:27:34;;;;;;;2.35;2.20;;;;;;;21.18;42.21;97017.88;5008379;28;20174;-75
2022/08/23 00:30:00;;;;;;;2.70;2.15;;;;;;;21.14;42.19;97017.72;4997342;27;20180;-75
2022/08/23 00:32:28;;;;;;;2.65;2.08;;;;;;;21.05;42.36;97016.97;5011804;27;20216;-75
2022/08/23 00:34:53;;;;;;;2.67;2.00;;;;;;;21.05;42.32;97006.38;5025690;27;20630;-75
2022/08/23 00:37:20;;;;;;;2.80;2.30;;;;;;;21.01;42.68;97002.84;5019076;27;20187;-75
2022/08/23 00:39:45;;;;;;;4.18;2.70;;;;;;;20.98;42.94;97000.03;5020414;27;20299;-75
2022/08/23 00:48:02;;;;;;;3.30;2.65;;;;;;;20.66;44.18;97007.41;4981436;27;20209;-75
2022/08/23 00:50:40;;;;;;;2.65;2.45;;;;;;;20.48;44.43;97004.78;5010713;27;20350;-75
2022/08/23 00:53:24;;;;;;;3.20;2.53;;;;;;;20.35;44.54;97014.41;4993998;27;20346;-75
2022/08/23 00:55:53;;;;;;;2.58;2.38;;;;;;;20.38;44.85;97015.66;5026022;27;20237;-75
2022/08/23 00:58:20;;;;;;;2.78;2.47;;;;;;;20.30;44.83;97019.09;4994226;27;20173;-75
2022/08/23 01:00:48;;;;;;;2.78;2.50;;;;;;;20.22;44.88;97020.66;4997792;27;20204;-75
2022/08/23 01:03:15;;;;;;;4.43;2.80;;;;;;;20.06;45.23;97020.31;5027597;27;20236;-74
2022/08/23 01:06:12;;;;;;;3.03;2.33;;;;;;;19.74;45.87;97021.47;5024174;27;20730;-76
2022/08/23 01:08:40;;;;;;;2.78;2.55;;;;;;;19.80;45.62;97025.56;5003953;27;20794;-76
2022/08/23 01:11:09;;;;;;;5.25;2.50;;;;;;;19.69;46.09;97018.97;4994713;27;20196;-76
2022/08/23 01:13:39;;;;;;;3.10;2.53;;;;;;;19.65;46.34;97016.16;5010972;27;20642;-75
2022/08/23 01:16:09;;;;;;;4.35;2.20;;;;;;;19.64;45.98;97018.03;5015179;28;20150;-76
2022/08/23 01:18:35;;;;;;;3.50;2.40;;;;;;;19.58;46.45;97016.59;4990678;28;20242;-76
2022/08/23 01:21:16;;;;;;;3.45;2.55;;;;;;;19.60;46.76;97022.38;4985245;27;20235;-76
2022/08/23 01:23:51;;;;;;;3.35;2.30;;;;;;;19.48;46.70;97018.75;5010014;27;20173;-75
2022/08/23 01:26:18;;;;;;;2.70;2.42;;;;;;;19.52;46.76;97012.56;4992674;28;20269;-76
2022/08/23 01:28:43;;;;;;;3.28;2.30;;;;;;;19.55;46.58;97022.53;4989355;28;20198;-76
2022/08/23 01:31:10;;;;;;;3.15;2.65;;;;;;;19.53;46.77;97023.91;5003439;27;20252;-76
2022/08/23 01:33:36;;;;;;;4.30;2.50;;;;;;;19.53;46.76;97027.31;4993484;27;20283;-76
2022/08/23 01:36:03;;;;;;;3.05;2.60;;;;;;;19.53;46.79;97024.66;4991287;27;20127;-75
2022/08/23 01:38:28;;;;;;;3.63;2.38;;;;;;;19.57;46.92;97033.56;5014471;27;20169;-76
2022/08/23 01:40:54;;;;;;;3.47;2.33;;;;;;;19.49;46.82;97026.38;5021383;27;20341;-75
2022/08/23 01:43:20;;;;;;;2.85;2.30;;;;;;;19.50;47.54;97025.31;5010061;27;20200;-76
2022/08/23 01:45:46;;;;;;;3.42;2.33;;;;;;;19.52;47.44;97028.41;5003378;28;20166;-76
2022/08/23 01:48:12;;;;;;;2.88;2.45;;;;;;;19.49;46.88;97025.59;4983829;28;20303;-75
2022/08/23 01:50:38;;;;;;;3.42;2.50;;;;;;;19.50;46.85;97025.31;5027261;28;20200;-76
2022/08/23 01:53:03;;;;;;;2.95;2.67;;;;;;;19.50;46.73;97032.44;5018830;28;20205;-76
2022/08/23 01:55:29;;;;;;;3.05;2.25;;;;;;;19.59;46.38;97023.47;5008988;28;20862;-75
2022/08/23 01:57:57;;;;;;;3.78;2.47;;;;;;;19.61;46.41;97034.50;5007290;28;20559;-76
2022/08/23 02:00:25;;;;;;;3.13;2.65;;;;;;;19.73;45.75;97033.91;4990218;28;20202;-75
2022/08/23 02:02:51;;;;;;;2.60;2.40;;;;;;;19.77;46.07;97037.50;5016180;27;20202;-76
2022/08/23 02:05:17;;;;;;;2.72;2.30;;;;;;;19.66;46.68;97030.94;5034276;28;20716;-76
2022/08/23 02:07:43;;;;;;;3.00;2.28;;;;;;;19.61;46.58;97031.84;4993804;28;20193;-76
2022/08/23 02:10:09;;;;;;;3.65;2.60;;;;;;;19.58;46.21;97035.09;4994142;28;20626;-76
2022/08/23 02:12:36;;;;;;;2.50;2.30;;;;;;;19.56;46.40;97042.56;4993813;28;20250;-76
2022/08/23 02:15:02;;;;;;;4.38;2.40;;;;;;;19.52;47.08;97040.81;5005786;28;20198;-76
2022/08/23 02:17:28;;;;;;;2.42;2.25;;;;;;;19.50;46.73;97038.50;4996284;28;20570;-76
2022/08/23 02:19:54;;;;;;;4.10;2.63;;;;;;;19.48;47.05;97047.81;4974108;28;20283;-76
2022/08/23 02:22:20;;;;;;;4.63;2.65;;;;;;;19.45;47.13;97052.63;4991957;28;20692;-76
2022/08/23 02:24:46;;;;;;;3.17;2.45;;;;;;;19.40;47.13;97055.38;4989343;28;20182;-76
2022/08/23 02:27:14;;;;;;;2.75;2.30;;;;;;;19.38;46.72;97048.84;4990819;28;20185;-76
2022/08/23 02:29:41;;;;;;;2.80;2.28;;;;;;;19.37;46.74;97050.72;5006919;28;20460;-76
2022/08/23 02:32:07;;;;;;;2.78;2.38;;;;;;;19.36;47.03;97048.38;5006642;28;20201;-76
2022/08/23 02:34:33;;;;;;;2.28;2.00;;;;;;;19.34;47.33;97050.53;4992795;28;20176;-76
2022/08/23 02:36:58;;;;;;;2.78;2.30;;;;;;;19.28;47.32;97052.56;4989972;28;20772;-76
2022/08/23 02:39:24;;;;;;;2.95;2.30;;;;;;;19.23;47.56;97056.09;5006717;28;20186;-76
2022/08/23 02:41:49;;;;;;;4.03;2.33;;;;;;;19.23;47.68;97052.69;4989823;28;20635;-76
2022/08/23 02:44:15;;;;;;;2.70;2.15;;;;;;;19.25;47.62;97056.56;4990255;28;20186;-76
2022/08/23 02:46:41;;;;;;;2.38;2.05;;;;;;;19.29;46.95;97059.38;5007739;28;20272;-76
2022/08/23 02:49:06;;;;;;;2.53;2.33;;;;;;;19.26;47.39;97060.78;5009428;28;20356;-76
2022/08/23 02:51:32;;;;;;;3.70;2.70;;;;;;;19.12;47.89;97060.06;5009322;28;20454;-76
2022/08/23 02:53:57;;;;;;;2.78;2.50;;;;;;;19.00;48.32;97057.19;5032836;27;20195;-76
2022/08/23 02:56:23;;;;;;;3.78;2.55;;;;;;;18.95;48.34;97070.50;5026364;28;20192;-76
2022/08/23 02:58:49;;;;;;;2.97;2.67;;;;;;;18.84;48.39;97062.06;5009349;28;20204;-76
2022/08/23 03:01:20;;;;;;;3.13;2.42;;;;;;;18.68;48.75;97069.53;5029449;27;20347;-76
2022/08/23 03:03:46;;;;;;;5.07;2.85;;;;;;;18.74;49.17;97070.19;5032723;27;20666;-76
2022/08/23 03:06:12;;;;;;;4.00;2.40;;;;;;;18.66;48.84;97063.78;4994743;28;20201;-76
2022/08/23 03:08:38;;;;;;;3.63;2.70;;;;;;;18.65;48.96;97068.28;5028401;28;20581;-76
2022/08/23 03:11:13;;;;;;;4.80;2.72;;;;;;;18.52;48.86;97061.97;4992811;28;20213;-75
2022/08/23 03:13:40;;;;;;;3.22;2.40;;;;;;;18.59;49.43;97064.19;5009571;28;20352;-76
2022/08/23 03:16:07;;;;;;;2.88;2.45;;;;;;;18.55;49.84;97075.66;5003497;28;20702;-76
2022/08/23 03:18:33;;;;;;;2.92;2.40;;;;;;;18.55;49.61;97073.00;5026503;28;20131;-75
2022/08/23 03:20:59;;;;;;;3.05;2.75;;;;;;;18.57;49.77;97068.22;4992381;28;20433;-76
2022/08/23 03:23:24;;;;;;;2.92;2.67;;;;;;;18.57;49.42;97065.56;4991445;27;20188;-75
2022/08/23 03:25:50;;;;;;;3.65;2.65;;;;;;;18.62;49.24;97068.09;5046339;27;20630;-76
2022/08/23 03:28:15;;;;;;;2.72;2.40;;;;;;;18.67;49.21;97060.84;4995925;27;20184;-76
2022/08/23 03:30:41;;;;;;;2.88;2.50;;;;;;;18.59;49.19;97064.19;5016347;27;20217;-76
2022/08/23 03:33:07;;;;;;;3.08;2.50;;;;;;;18.49;49.77;97065.22;5032878;27;20211;-76
2022/08/23 03:35:32;;;;;;;3.50;2.75;;;;;;;18.35;50.15;97064.44;5003146;27;20276;-76
2022/08/23 03:37:58;;;;;;;3.45;2.70;;;;;;;18.29;50.66;97065.66;5029237;27;20885;-76
2022/08/23 03:40:23;;;;;;;3.60;2.83;;;;;;;18.26;50.91;97063.63;5029419;27;20205;-76
2022/08/23 03:42:50;;;;;;;3.13;2.58;;;;;;;18.25;50.96;97067.31;5011985;27;20356;-76
2022/08/23 03:45:16;;;;;;;3.13;2.85;;;;;;;18.28;50.71;97064.09;5020081;28;20326;-75
2022/08/23 03:47:42;;;;;;;3.13;2.63;;;;;;;18.25;50.56;97068.09;5009533;28;20545;-75
2022/08/23 03:50:08;;;;;;;4.03;2.67;;;;;;;18.29;50.44;97076.19;5009545;28;20752;-75
2022/08/23 03:52:33;;;;;;;4.30;2.63;;;;;;;18.28;50.36;97080.69;4994634;27;20169;-76
2022/08/23 03:54:59;;;;;;;3.97;2.80;;;;;;;18.28;50.52;97085.97;5007823;28;20237;-76
2022/08/23 03:57:24;;;;;;;2.55;2.35;;;;;;;18.27;50.43;97081.00;5009441;28;20200;-75
2022/08/23 03:59:49;;;;;;;2.47;2.10;;;;;;;18.28;50.36;97093.06;4976243;28;20717;-75
2022/08/23 04:02:15;;;;;;;4.63;3.10;;;;;;;18.28;50.39;97088.59;5027500;28;20213;-75
2022/08/23 04:04:41;;;;;;;3.35;2.45;;;;;;;18.23;50.81;97095.81;5010446;27;20193;-76
2022/08/23 04:07:07;;;;;;;4.93;2.65;;;;;;;18.24;50.92;97089.50;5029391;27;20212;-75
2022/08/23 04:09:32;;;;;;;4.05;3.00;;;;;;;18.23;51.15;97094.00;5042767;27;20211;-76
2022/08/23 04:11:58;;;;;;;3.88;2.88;;;;;;;18.22;51.17;97102.97;5031339;27;20121;-75
2022/08/23 04:14:23;;;;;;;3.33;2.72;;;;;;;18.17;51.44;97099.66;5049000;27;20350;-76
2022/08/23 04:16:49;;;;;;;3.60;2.53;;;;;;;18.15;51.38;97102.59;4983880;28;20185;-76
2022/08/23 04:19:14;;;;;;;3.55;2.53;;;;;;;18.11;51.32;97105.03;5009344;27;20208;-75
2022/08/23 04:21:47;;;;;;;3.90;2.53;;;;;;;18.02;51.21;97113.91;4995194;27;20177;-75
2022/08/23 04:24:14;;;;;;;2.65;2.45;;;;;;;18.14;51.19;97109.69;5012129;27;20200;-76
2022/08/23 04:26:40;;;;;;;4.72;2.80;;;;;;;18.15;51.04;97100.72;5007021;28;20387;-76
2022/08/23 04:29:07;;;;;;;3.10;2.33;;;;;;;18.15;51.13;97113.91;4992044;28;20270;-76
2022/08/23 04:31:33;;;;;;;3.85;2.70;;;;;;;18.13;51.14;97116.06;5007378;27;20199;-76
2022/08/23 04:33:59;;;;;;;3.13;2.72;;;;;;;18.14;51.56;97116.81;5032379;27;20188;-76
2022/08/23 04:36:24;;;;;;;3.10;2.58;;;;;;;18.13;51.34;97113.41;4998062;28;20658;-75
2022/08/23 04:38:50;;;;;;;4.20;2.65;;;;;;;18.15;51.05;97118.41;4975360;28;20201;-76
2022/08/23 04:44:00;;;;;;;3.05;2.72;;;;;;;18.15;51.12;97129.72;5028015;27;20212;-76
2022/08/23 04:46:25;;;;;;;2.80;2.42;;;;;;;18.19;51.05;97118.59;4998436;27;20173;-76
2022/08/23 04:48:52;;;;;;;3.17;2.67;;;;;;;18.20;50.95;97125.41;5010938;27;20373;-76
2022/08/23 04:51:18;;;;;;;3.25;2.70;;;;;;;18.13;51.25;97133.72;5010077;27;20269;-76
2022/08/23 04:53:44;;;;;;;3.45;2.70;;;;;;;18.13;51.48;97137.13;5010538;27;20181;-76
2022/08/23 04:56:09;;;;;;;3.33;2.60;;;;;;;18.10;51.72;97126.41;5006505;28;20187;-75
2022/08/23 04:58:35;;;;;;;2.95;2.53;;;;;;;18.09;51.67;97138.78;4991120;28;20209;-76
2022/08/23 05:01:03;;;;;;;3.47;3.17;;;;;;;18.08;51.75;97133.81;5014746;27;20232;-76
2022/08/23 05:03:30;;;;;;;3.30;3.00;;;;;;;18.09;51.73;97138.78;5026559;27;20222;-75
2022/08/23 05:05:56;;;;;;;3.08;2.67;;;;;;;18.07;52.04;97146.19;5007333;27;20196;-75
2022/08/23 05:08:23;;;;;;;3.95;3.53;;;;;;;18.01;52.14;97147.38;5026774;27;20461;-76
2022/08/23 05:10:48;;;;;;;3.20;2.90;;;;;;;18.05;51.90;97155.47;5009588;27;20663;-75
2022/08/23 05:13:14;;;;;;;3.78;2.97;;;;;;;18.07;51.99;97143.56;5026492;27;20099;-75
2022/08/23 05:15:39;;;;;;;4.10;3.30;;;;;;;18.06;52.16;97157.81;5000046;28;20650;-75
2022/08/23 05:18:04;;;;;;;3.42;3.13;;;;;;;18.08;51.96;97160.94;5016248;27;20207;-76
2022/08/23 05:20:31;;;;;;;3.30;3.00;;;;;;;18.05;52.40;97160.75;5023381;27;20715;-76
2022/08/23 05:22:58;;;;;;;3.42;2.90;;;;;;;18.02;52.55;97170.00;5026346;27;20201;-76
2022/08/23 05:25:48;;;;;;;3.30;3.00;;;;;;;18.08;52.63;97171.47;4989407;28;20182;-75
2022/08/23 05:28:09;;;;;;;4.13;3.70;;;;;;;18.07;52.92;97171.78;5030261;27;20623;-75
2022/08/23 05:30:34;;;;;;;4.55;3.55;;;;;;;18.08;53.02;97182.03;5042886;27;20300;-76
2022/08/23 05:33:00;;;;;;;6.25;3.20;;;;;;;18.18;52.89;97185.53;5006732;27;20186;-75
2022/08/23 05:35:25;;;;;;;3.83;3.25;;;;;;;18.26;52.67;97185.63;5031387;27;20212;-75
2022/08/23 05:37:51;;;;;;;3.90;3.10;;;;;;;18.30;52.58;97177.91;5010061;28;20683;-76
2022/08/23 05:40:16;;;;;;;4.25;3.42;;;;;;;18.30;52.43;97183.97;5016552;27;20745;-76
2022/08/23 05:42:41;;;;;;;3.63;3.00;;;;;;;18.34;52.40;97179.66;5008469;27;20255;-76
2022/08/23 05:45:08;;;;;;;4.00;3.28;;;;;;;18.40;52.57;97187.47;5028365;27;20270;-76
2022/08/23 05:47:33;;;;;;;4.75;3.22;;;;;;;18.43;52.77;97178.97;5007090;28;20212;-76
2022/08/23 05:49:59;;;;;;;3.20;2.92;;;;;;;18.52;52.49;97193.81;5002257;28;20202;-76
2022/08/23 05:52:25;;;;;;;3.97;3.55;;;;;;;18.57;52.21;97192.13;4988234;28;20198;-76
2022/08/23 05:54:50;;;;;;;4.50;3.55;;;;;;;18.62;52.00;97187.53;5005695;28;20431;-76
2022/08/23 05:57:16;;;;;;;3.90;3.00;;;;;;;18.67;52.01;97191.94;5016709;27;20633;-75
2022/08/23 05:59:41;;;;;;;3.42;3.05;;;;;;;18.73;52.02;97190.75;5006037;28;20204;-75
2022/08/23 06:02:06;;;;;;;4.13;3.15;;;;;;;18.78;51.85;97192.47;4987770;28;20251;-75
2022/08/23 06:04:32;;;;;;;3.55;2.85;;;;;;;18.83;51.90;97198.47;4987231;28;20199;-76
2022/08/23 06:06:57;;;;;;;3.30;3.00;;;;;;;18.92;51.81;97208.31;4985122;28;20220;-75
2022/08/23 06:09:23;;;;;;;3.72;3.13;;;;;;;18.98;51.82;97212.41;4987876;28;20159;-76
2022/08/23 06:11:48;;;;;;;5.47;3.15;;;;;;;19.03;51.67;97220.97;5026077;28;20653;-76
2022/08/23 06:14:14;;;;;;;3.90;3.25;;;;;;;19.09;51.69;97219.03;5032793;28;20260;-76
2022/08/23 06:16:43;;;;;;;3.83;3.10;;;;;;;19.14;51.68;97218.91;4992468;28;20180;-75
2022/08/23 06:19:09;;;;;;;3.63;2.80;;;;;;;19.27;51.62;97225.97;5010355;28;20319;-76
2022/08/23 06:21:35;;;;;;;4.95;3.22;;;;;;;19.36;51.59;97222.63;5027093;28;20196;-75
2022/08/23 06:24:01;;;;;;;3.83;3.10;;;;;;;19.46;51.59;97220.50;5009879;28;20201;-76
2022/08/23 06:26:33;;;;;;;5.05;3.17;;;;;;;19.49;51.58;97221.03;5010758;28;20252;-75
2022/08/23 06:29:02;;;;;;;3.50;2.70;;;;;;;19.68;51.07;97226.09;5010458;28;20178;-76
2022/08/23 06:31:47;;;;;;;3.15;2.47;;;;;;;19.92;50.47;97223.91;5010164;28;20273;-76
2022/08/23 06:34:18;;;;;;;4.18;2.38;;;;;;;20.13;50.28;97223.38;5030023;27;20259;-76
2022/08/23 06:36:46;;;;;;;4.53;2.30;;;;;;;20.34;50.22;97218.31;5030873;27;20216;-76
2022/08/23 06:39:12;;;;;;;3.97;2.42;;;;;;;20.55;50.10;97224.63;5031278;27;20289;-76
2022/08/23 06:41:38;;;;;;;3.47;2.40;;;;;;;20.70;49.59;97223.44;5030734;27;20388;-76
2022/08/23 06:44:04;;;;;;;4.18;2.63;;;;;;;20.89;49.59;97222.38;5028641;27;20192;-77
2022/08/23 06:46:30;;;;;;;2.50;2.30;;;;;;;21.06;49.18;97229.53;5013923;27;20273;-76
2022/08/23 06:48:56;;;;;;;2.85;2.05;;;;;;;21.21;49.19;97223.75;5030668;27;20714;-76
2022/08/23 06:51:24;;;;;;;2.22;2.03;;;;;;;21.44;48.36;97221.75;4996836;27;20256;-75
2022/08/23 06:53:53;;;;;;;3.08;1.98;;;;;;;21.68;48.16;97225.78;4997206;27;20229;-75
2022/08/23 06:56:20;;;;;;;3.22;2.10;;;;;;;21.91;47.73;97225.56;5013936;27;20188;-76
2022/08/23 06:58:45;;;;;;;3.85;1.75;;;;;;;22.17;47.01;97234.19;4997181;27;20253;-76
2022/08/23 07:01:11;;;;;;;2.65;1.90;;;;;;;22.32;47.20;97226.84;5013658;27;20270;-75
2022/08/23 07:03:37;;;;;;;3.53;1.92;;;;;;;22.59;46.74;97225.59;5049289;27;20645;-76
2022/08/23 07:06:02;;;;;;;2.83;2.08;;;;;;;22.79;46.19;97230.16;5030555;27;20318;-76
2022/08/23 07:08:28;;;;;;;4.80;2.05;;;;;;;23.05;45.80;97223.88;5013511;27;20613;-76
2022/08/23 07:10:56;;;;;;;3.60;1.63;;;;;;;23.25;45.17;97230.28;5030483;27;20595;-76
2022/08/23 07:13:22;;;;;;;4.18;2.00;;;;;;;23.60;44.58;97231.88;5030513;27;20269;-76
2022/08/23 07:15:47;;;;;;;5.95;1.90;;;;;;;23.84;44.00;97229.31;5013592;27;20245;-76
2022/08/23 07:18:13;;;;;;;4.68;2.42;;;;;;;24.06;44.16;97240.63;5030454;27;20446;-76
2022/08/23 07:20:38;;;;;;;1.83;1.48;;;;;;;24.40;43.12;97239.44;5013343;27;20264;-76
2022/08/23 07:23:04;;;;;;;3.97;2.00;;;;;;;24.54;42.68;97248.94;5029667;27;20631;-76
2022/08/23 07:25:31;;;;;;;3.95;1.85;;;;;;;24.80;41.87;97245.97;5001202;28;20204;-76
2022/08/23 07:27:57;;;;;;;3.80;1.80;;;;;;;25.07;41.44;97251.66;4993773;28;20271;-76
2022/08/23 07:30:22;;;;;;;2.60;1.60;;;;;;;25.27;40.97;97250.75;5010024;28;20185;-76
2022/08/23 07:32:48;;;;;;;3.47;1.80;;;;;;;25.59;40.47;97251.63;4976409;28;20291;-76
2022/08/23 07:35:13;;;;;;;1.95;1.40;;;;;;;25.75;40.38;97253.53;4993148;28;20267;-76
2022/08/23 07:37:38;;;;;;;2.80;1.92;;;;;;;25.93;40.00;97252.09;5028256;28;20738;-75
2022/08/23 07:40:07;;;;;;;4.00;1.95;;;;;;;26.09;39.65;97249.47;4976620;28;20274;-76
2022/08/23 07:42:32;;;;;;;2.47;1.65;;;;;;;26.32;39.15;97248.84;5010040;28;20205;-76
2022/08/23 07:44:58;;;;;;;3.95;1.75;;;;;;;26.46;38.81;97245.72;4992814;28;20167;-76
2022/08/23 07:47:23;;;;;;;3.15;1.73;;;;;;;26.64;38.42;97241.59;4991623;28;20167;-76
2022/08/23 07:49:49;;;;;;;2.60;1.85;;;;;;;26.67;39.10;97245.47;5009304;28;20189;-75
2022/08/23 07:52:15;;;;;;;2.92;1.80;;;;;;;26.89;37.84;97247.47;4992736;28;20361;-76
2022/08/23 07:54:40;;;;;;;2.63;1.83;;;;;;;27.12;38.03;97243.34;5009562;28;20734;-75
2022/08/23 07:57:05;;;;;;;4.15;1.98;;;;;;;27.39;36.67;97253.09;5009609;28;20637;-76
2022/08/23 07:59:31;;;;;;;2.65;2.22;;;;;;;27.58;36.29;97248.84;4994902;27;20353;-75
2022/08/23 08:01:56;;;;;;;3.60;1.83;;;;;;;27.73;35.99;97256.00;5011387;27;20181;-75
2022/08/23 08:04:22;;;;;;;2.45;2.10;;;;;;;27.80;36.44;97258.03;4995855;27;20292;-75
2022/08/23 08:06:49;;;;;;;3.97;1.50;;;;;;;27.96;35.61;97255.25;4995844;27;20132;-76
2022/08/23 08:09:15;;;;;;;2.10;1.60;;;;;;;28.15;35.15;97265.91;5013035;27;20654;-75
2022/08/23 08:11:43;;;;;;;4.50;1.80;;;;;;;28.28;35.01;97269.19;5012172;27;20359;-75
2022/08/23 08:14:09;;;;;;;2.95;1.80;;;;;;;28.54;34.82;97265.75;5012433;27;20379;-75
2022/08/23 08:16:37;;;;;;;3.90;1.88;;;;;;;28.65;33.70;97273.19;5012437;27;20275;-75
2022/08/23 08:19:05;;;;;;;2.90;2.05;;;;;;;28.84;33.80;97273.09;4995441;27;20165;-76
2022/08/23 08:21:31;;;;;;;3.67;2.25;;;;;;;29.01;33.48;97271.75;4995388;27;20189;-75
2022/08/23 08:23:57;;;;;;;2.40;1.92;;;;;;;29.10;33.74;97276.88;5012061;27;20131;-75
2022/08/23 08:26:23;;;;;;;1.95;1.70;;;;;;;29.40;32.82;97279.53;5012552;27;20245;-75
2022/08/23 08:28:49;;;;;;;2.38;2.15;;;;;;;29.24;33.25;97263.66;5029002;27;20203;-75
2022/08/23 08:31:15;;;;;;;2.47;1.63;;;;;;;29.58;32.79;97279.75;5047331;27;20085;-75
2022/08/23 08:33:41;;;;;;;2.72;2.13;;;;;;;29.77;32.61;97278.06;5012104;27;20658;-75
2022/08/23 08:36:07;;;;;;;2.50;1.83;;;;;;;30.08;31.90;97281.41;5011825;27;20124;-75
2022/08/23 08:38:36;;;;;;;2.10;1.75;;;;;;;30.30;31.39;97277.75;4995360;27;20192;-75
2022/08/23 08:41:18;;;;;;;2.00;1.80;;;;;;;30.05;31.26;97275.59;5011470;27;20158;-76
2022/08/23 08:43:57;;;;;;;3.30;1.90;;;;;;;30.10;30.98;97281.81;5028788;27;20207;-75
2022/08/23 08:46:44;;;;;;;2.00;1.50;;;;;;;30.36;29.20;97280.88;4991831;28;20749;-76
2022/08/23 08:49:13;;;;;;;3.22;1.98;;;;;;;30.61;30.39;97278.38;4991576;28;20721;-75
2022/08/23 08:51:55;;;;;;;3.13;1.88;;;;;;;30.39;29.47;97283.59;4974718;28;20202;-75
2022/08/23 08:54:24;;;;;;;4.03;2.20;;;;;;;30.70;29.26;97284.19;4975271;28;20193;-75
2022/08/23 08:56:52;;;;;;;3.20;1.70;;;;;;;30.95;28.28;97281.66;4975182;28;20158;-75
2022/08/23 08:59:21;;;;;;;2.47;1.85;;;;;;;30.92;28.55;97284.31;5007961;28;20365;-75
2022/08/23 09:01:46;;;;;;;2.10;1.85;;;;;;;31.18;28.36;97277.91;4991218;28;20158;-75
2022/08/23 09:04:12;;;;;;;4.53;2.20;;;;;;;31.22;27.97;97280.63;4974909;28;20197;-75
2022/08/23 09:06:40;;;;;;;2.63;1.67;;;;;;;31.01;29.47;97279.38;4975048;28;20792;-75
2022/08/23 09:09:40;;;;;;;5.00;2.35;;;;;;;31.43;28.21;97279.91;5027980;27;20189;-75
2022/08/23 09:12:30;;;;;;;2.50;2.08;;;;;;;31.62;28.16;97273.47;5007898;28;20330;-75
2022/08/23 09:15:13;;;;;;;2.85;2.15;;;;;;;31.90;28.35;97273.50;4991111;28;20255;-75
2022/08/23 09:17:43;;;;;;;3.10;1.77;;;;;;;32.19;27.09;97270.88;4991305;28;20250;-75
2022/08/23 09:20:10;;;;;;;2.67;1.90;;;;;;;32.35;27.42;97275.84;5008128;28;20697;-75
2022/08/23 09:22:40;;;;;;;2.75;1.40;;;;;;;32.28;27.31;97265.84;4990925;28;20181;-76
2022/08/23 09:25:10;;;;;;;3.10;2.03;;;;;;;32.43;27.06;97268.53;4991038;28;20342;-76
2022/08/23 09:27:37;;;;;;;3.15;2.05;;;;;;;32.54;26.58;97265.84;5008070;28;20270;-76
2022/08/23 09:30:03;;;;;;;3.42;1.70;;;;;;;32.50;25.00;97265.84;4974321;28;20221;-75
2022/08/23 09:32:32;;;;;;;4.35;2.20;;;;;;;32.58;25.81;97263.91;4990577;28;20622;-76
2022/08/23 09:35:27;;;;;;;3.53;2.08;;;;;;;32.16;26.87;97265.47;5007588;28;20181;-76
2022/08/23 09:37:58;;;;;;;4.15;2.00;;;;;;;32.31;25.71;97271.66;4953180;28;20233;-76
2022/08/23 09:40:25;;;;;;;2.75;1.95;;;;;;;32.85;26.86;97266.94;4990927;28;20725;-75
2022/08/23 09:43:03;;;;;;;2.08;1.85;;;;;;;33.45;25.51;97267.09;4990398;28;20366;-76
2022/08/23 09:45:37;;;;;;;3.35;1.80;;;;;;;33.32;26.13;97256.78;5007253;28;20182;-75
2022/08/23 09:48:04;;;;;;;2.88;2.55;;;;;;;33.58;24.27;97268.97;4990390;28;20418;-75
2022/08/23 09:50:41;;;;;;;2.50;2.30;;;;;;;33.79;24.21;97270.00;4990948;28;20206;-75
2022/08/23 09:53:11;;;;;;;4.03;1.98;;;;;;;33.41;24.50;97276.00;5007660;28;20364;-75
2022/08/23 09:55:41;;;;;;;2.70;1.95;;;;;;;33.64;23.52;97269.34;4990846;28;20355;-75
2022/08/23 09:58:36;;;;;;;4.03;2.05;;;;;;;33.41;23.60;97270.59;4974253;28;20201;-75
2022/08/23 10:01:08;;;;;;;;;;;;;;;33.36;24.80;97272.94;5025361;28;20205;-76
2022/08/23 10:03:33;;;;;;;2.97;1.70;;;;;;;33.29;24.50;97265.66;5033154;27;20116;-75
2022/08/23 10:06:00;;;;;;;3.08;1.55;;;;;;;33.01;23.44;97261.88;5000339;28;20424;-75
2022/08/23 10:08:31;;;;;;;2.80;2.58;;;;;;;33.14;23.87;97269.53;4990471;28;20247;-75
2022/08/23 10:11:15;;;;;;;1.88;1.70;;;;;;;33.26;23.58;97266.44;4989941;28;20326;-75
2022/08/23 10:13:42;;;;;;;3.33;1.90;;;;;;;33.62;23.80;97266.22;5007507;28;20193;-76
2022/08/23 10:16:25;;;;;;;4.55;1.65;;;;;;;33.89;22.79;97268.41;5007293;28;20188;-75
2022/08/23 10:19:07;;;;;;;3.17;2.23;;;;;;;33.84;23.38;97268.84;5007150;28;20211;-75
2022/08/23 10:22:10;;;;;;;2.20;1.92;;;;;;;33.84;23.06;97266.91;5006733;28;20474;-74
2022/08/23 10:24:46;;;;;;;2.45;2.03;;;;;;;33.77;23.26;97259.59;5007074;28;20316;-75
2022/08/23 10:30:53;;;;;;;3.70;2.00;;;;;;;33.71;23.86;97258.50;5006900;28;20267;-75
2022/08/23 10:33:22;;;;;;;2.53;1.90;;;;;;;34.22;22.14;97255.44;5025613;28;20189;-75
2022/08/23 10:36:09;;;;;;;4.30;2.13;;;;;;;34.17;22.83;97253.13;5006697;28;20647;-75
2022/08/23 10:38:56;;;;;;;3.47;2.10;;;;;;;34.57;22.45;97253.59;5007122;28;20278;-75
2022/08/23 10:41:43;;;;;;;2.30;2.10;;;;;;;34.69;22.36;97248.41;4989969;28;20661;-75
2022/08/23 10:44:41;;;;;;;2.40;2.20;;;;;;;35.10;22.02;97249.53;5006615;27;20239;-75
2022/08/23 10:47:15;;;;;;;2.67;1.85;;;;;;;35.16;22.04;97245.19;5006037;28;20643;-75
2022/08/23 10:49:41;;;;;;;2.50;2.15;;;;;;;35.19;20.93;97233.56;5006807;28;20311;-75
2022/08/23 10:52:10;;;;;;;2.70;2.50;;;;;;;35.28;20.88;97237.72;4989843;28;20700;-75
2022/08/23 10:54:59;;;;;;;2.60;2.30;;;;;;;35.53;21.16;97238.16;4990189;28;20685;-75
2022/08/23 10:57:30;;;;;;;4.60;2.30;;;;;;;35.37;20.56;97224.44;5006722;28;20136;-74
2022/08/23 10:59:57;;;;;;;2.60;2.08;;;;;;;35.90;20.54;97230.25;4989972;28;20227;-75
2022/08/23 11:02:41;;;;;;;4.75;2.45;;;;;;;36.23;20.77;97227.81;4973488;28;20249;-75
2022/08/23 11:05:17;;;;;;;3.97;2.33;;;;;;;35.97;20.29;97230.94;5007186;28;20775;-75
2022/08/23 11:08:05;;;;;;;3.33;2.17;;;;;;;36.13;20.92;97221.38;5006580;28;20233;-75
2022/08/23 11:10:33;;;;;;;2.88;2.30;;;;;;;36.51;20.72;97223.81;5006773;28;20189;-75
2022/08/23 11:13:05;;;;;;;5.28;2.58;;;;;;;36.47;20.11;97218.47;5006078;28;20319;-75
2022/08/23 11:15:42;;;;;;;3.20;2.25;;;;;;;36.19;20.82;97219.72;4973813;28;20235;-75
2022/08/23 11:18:10;;;;;;;3.58;2.38;;;;;;;36.13;20.46;97215.97;4990297;28;20284;-75
2022/08/23 11:20:47;;;;;;;3.78;2.28;;;;;;;35.85;20.50;97217.97;4990506;28;20250;-75
2022/08/23 11:23:33;;;;;;;2.53;2.33;;;;;;;35.83;20.13;97201.34;5026916;28;20374;-75
2022/08/23 11:25:58;;;;;;;3.20;2.60;;;;;;;35.37;20.37;97213.63;5028505;28;20748;-75
2022/08/23 11:28:26;;;;;;;2.75;2.55;;;;;;;35.89;20.17;97221.38;4993280;28;20209;-75
2022/08/23 11:30:55;;;;;;;2.95;2.30;;;;;;;36.53;18.77;97216.78;5028024;28;20193;-76
2022/08/23 11:33:24;;;;;;;3.17;2.88;;;;;;;36.49;19.01;97209.91;5009924;28;20353;-76
2022/08/23 11:36:15;;;;;;;3.53;3.00;;;;;;;36.09;19.54;97212.53;4987322;28;20182;-76
2022/08/23 11:38:46;;;;;;;3.15;2.38;;;;;;;36.33;20.31;97216.00;4982508;28;20211;-76
2022/08/23 11:41:15;;;;;;;2.60;2.40;;;;;;;35.71;20.46;97212.72;5006019;28;20194;-75
2022/08/23 11:43:42;;;;;;;3.15;2.83;;;;;;;35.31;20.52;97209.84;4989457;28;20313;-75
2022/08/23 11:46:26;;;;;;;3.55;2.47;;;;;;;35.45;20.00;97212.34;4956583;28;20351;-75
2022/08/23 11:49:31;;;;;;;3.37;2.70;;;;;;;35.48;19.85;97210.78;4972693;28;20168;-75
2022/08/23 11:52:16;;;;;;;3.15;2.55;;;;;;;35.53;19.83;97207.59;4989076;28;20562;-75
2022/08/23 11:54:50;;;;;;;2.72;2.50;;;;;;;35.37;20.18;97210.91;4989396;28;20572;-75